sensor_id;sensor_type;location;lat;lon;timestamp;P1;durP1;ratioP1;P2;durP2;ratioP2
57567;SDS011;43403;51.948;5.922;2024-02-26T00:01:44;4.50;;;3.58;;
57567;SDS011;43403;51.948;5.922;2024-02-26T00:04:11;5.30;;;3.67;;
57567;SDS011;43403;51.948;5.922;2024-02-26T00:06:40;6.75;;;3.85;;
57567;SDS011;43403;51.948;5.922;2024-02-26T00:09:08;4.68;;;3.30;;
57567;SDS011;43403;51.948;5.922;2024-02-26T00:11:37;5.63;;;3.40;;
57567;SDS011;43403;51.948;5.922;2024-02-26T00:14:04;5.00;;;3.42;;
57567;SDS011;43403;51.948;5.922;2024-02-26T00:16:31;8.52;;;3.45;;
57567;SDS011;43403;51.948;5.922;2024-02-26T00:18:57;5.18;;;3.40;;
57567;SDS011;43403;51.948;5.922;2024-02-26T00:21:24;5.60;;;3.85;;
57567;SDS011;43403;51.948;5.922;2024-02-26T00:23:50;4.80;;;3.50;;
57567;SDS011;43403;51.948;5.922;2024-02-26T00:26:17;5.00;;;3.20;;
57567;SDS011;43403;51.948;5.922;2024-02-26T00:28:43;5.72;;;3.83;;
57567;SDS011;43403;51.948;5.922;2024-02-26T00:31:10;6.53;;;4.10;;
57567;SDS011;43403;51.948;5.922;2024-02-26T00:33:36;5.85;;;3.60;;
57567;SDS011;43403;51.948;5.922;2024-02-26T00:36:04;4.32;;;3.55;;
57567;SDS011;43403;51.948;5.922;2024-02-26T00:38:30;6.35;;;3.70;;
57567;SDS011;43403;51.948;5.922;2024-02-26T00:40:56;5.07;;;4.15;;
57567;SDS011;43403;51.948;5.922;2024-02-26T00:43:23;5.57;;;3.65;;
57567;SDS011;43403;51.948;5.922;2024-02-26T00:45:49;5.65;;;3.80;;
57567;SDS011;43403;51.948;5.922;2024-02-26T00:48:16;5.85;;;4.00;;
57567;SDS011;43403;51.948;5.922;2024-02-26T00:50:42;5.00;;;3.63;;
57567;SDS011;43403;51.948;5.922;2024-02-26T00:53:09;4.10;;;3.15;;
57567;SDS011;43403;51.948;5.922;2024-02-26T00:55:35;7.68;;;3.83;;
57567;SDS011;43403;51.948;5.922;2024-02-26T00:58:02;7.90;;;4.30;;
57567;SDS011;43403;51.948;5.922;2024-02-26T01:00:28;5.70;;;3.55;;
57567;SDS011;43403;51.948;5.922;2024-02-26T01:02:54;6.45;;;3.90;;
57567;SDS011;43403;51.948;5.922;2024-02-26T01:05:21;5.20;;;3.90;;
57567;SDS011;43403;51.948;5.922;2024-02-26T01:07:47;5.45;;;3.95;;
57567;SDS011;43403;51.948;5.922;2024-02-26T01:10:14;6.00;;;4.07;;
57567;SDS011;43403;51.948;5.922;2024-02-26T01:12:40;5.45;;;3.78;;
57567;SDS011;43403;51.948;5.922;2024-02-26T01:15:07;6.47;;;3.67;;
57567;SDS011;43403;51.948;5.922;2024-02-26T01:17:35;5.75;;;3.78;;
57567;SDS011;43403;51.948;5.922;2024-02-26T01:20:01;6.47;;;3.40;;
57567;SDS011;43403;51.948;5.922;2024-02-26T01:22:28;3.97;;;2.92;;
57567;SDS011;43403;51.948;5.922;2024-02-26T01:24:54;4.47;;;3.15;;
57567;SDS011;43403;51.948;5.922;2024-02-26T01:27:22;4.90;;;3.28;;
57567;SDS011;43403;51.948;5.922;2024-02-26T01:29:52;5.43;;;3.13;;
57567;SDS011;43403;51.948;5.922;2024-02-26T01:32:19;5.05;;;3.28;;
57567;SDS011;43403;51.948;5.922;2024-02-26T01:34:46;5.05;;;3.05;;
57567;SDS011;43403;51.948;5.922;2024-02-26T01:37:12;7.78;;;3.33;;
57567;SDS011;43403;51.948;5.922;2024-02-26T01:39:39;6.88;;;3.22;;
57567;SDS011;43403;51.948;5.922;2024-02-26T01:42:07;6.68;;;3.67;;
57567;SDS011;43403;51.948;5.922;2024-02-26T01:44:34;4.78;;;3.30;;
57567;SDS011;43403;51.948;5.922;2024-02-26T01:47:00;3.63;;;2.80;;
57567;SDS011;43403;51.948;5.922;2024-02-26T01:49:27;4.53;;;2.90;;
57567;SDS011;43403;51.948;5.922;2024-02-26T01:51:54;4.63;;;3.00;;
57567;SDS011;43403;51.948;5.922;2024-02-26T01:54:21;6.72;;;3.20;;
57567;SDS011;43403;51.948;5.922;2024-02-26T01:56:47;5.00;;;3.53;;
57567;SDS011;43403;51.948;5.922;2024-02-26T01:59:15;5.68;;;3.65;;
57567;SDS011;43403;51.948;5.922;2024-02-26T02:01:42;4.85;;;3.58;;
57567;SDS011;43403;51.948;5.922;2024-02-26T02:04:10;7.03;;;3.67;;
57567;SDS011;43403;51.948;5.922;2024-02-26T02:06:36;5.95;;;3.55;;
57567;SDS011;43403;51.948;5.922;2024-02-26T02:09:04;4.95;;;3.65;;
57567;SDS011;43403;51.948;5.922;2024-02-26T02:11:33;10.68;;;4.13;;
57567;SDS011;43403;51.948;5.922;2024-02-26T02:14:00;4.32;;;3.22;;
57567;SDS011;43403;51.948;5.922;2024-02-26T02:16:26;5.88;;;3.95;;
57567;SDS011;43403;51.948;5.922;2024-02-26T02:18:52;5.22;;;3.80;;
57567;SDS011;43403;51.948;5.922;2024-02-26T02:21:19;6.25;;;4.20;;
57567;SDS011;43403;51.948;5.922;2024-02-26T02:23:45;6.00;;;4.40;;
57567;SDS011;43403;51.948;5.922;2024-02-26T02:26:13;7.90;;;4.47;;
57567;SDS011;43403;51.948;5.922;2024-02-26T02:28:40;6.15;;;3.78;;
57567;SDS011;43403;51.948;5.922;2024-02-26T02:31:07;7.03;;;4.68;;
57567;SDS011;43403;51.948;5.922;2024-02-26T02:33:34;5.35;;;3.75;;
57567;SDS011;43403;51.948;5.922;2024-02-26T02:36:01;8.52;;;4.30;;
57567;SDS011;43403;51.948;5.922;2024-02-26T02:38:27;8.18;;;4.85;;
57567;SDS011;43403;51.948;5.922;2024-02-26T02:40:56;6.43;;;4.28;;
57567;SDS011;43403;51.948;5.922;2024-02-26T02:43:22;5.10;;;3.92;;
57567;SDS011;43403;51.948;5.922;2024-02-26T02:45:48;7.43;;;4.72;;
57567;SDS011;43403;51.948;5.922;2024-02-26T02:48:15;8.13;;;3.92;;
57567;SDS011;43403;51.948;5.922;2024-02-26T02:50:41;5.57;;;3.47;;
57567;SDS011;43403;51.948;5.922;2024-02-26T02:53:08;5.85;;;4.20;;
57567;SDS011;43403;51.948;5.922;2024-02-26T02:55:34;7.28;;;4.07;;
57567;SDS011;43403;51.948;5.922;2024-02-26T02:58:01;6.95;;;4.40;;
57567;SDS011;43403;51.948;5.922;2024-02-26T03:00:27;5.35;;;3.92;;
57567;SDS011;43403;51.948;5.922;2024-02-26T03:02:54;7.20;;;4.65;;
57567;SDS011;43403;51.948;5.922;2024-02-26T03:05:20;6.90;;;3.92;;
57567;SDS011;43403;51.948;5.922;2024-02-26T03:07:47;6.43;;;3.80;;
57567;SDS011;43403;51.948;5.922;2024-02-26T03:10:13;5.68;;;3.40;;
57567;SDS011;43403;51.948;5.922;2024-02-26T03:12:40;6.05;;;4.05;;
57567;SDS011;43403;51.948;5.922;2024-02-26T03:15:06;5.50;;;3.85;;
57567;SDS011;43403;51.948;5.922;2024-02-26T03:17:33;6.78;;;4.22;;
57567;SDS011;43403;51.948;5.922;2024-02-26T03:19:59;5.28;;;3.80;;
57567;SDS011;43403;51.948;5.922;2024-02-26T03:22:25;5.60;;;3.60;;
57567;SDS011;43403;51.948;5.922;2024-02-26T03:24:52;5.28;;;4.10;;
57567;SDS011;43403;51.948;5.922;2024-02-26T03:27:18;6.63;;;4.03;;
57567;SDS011;43403;51.948;5.922;2024-02-26T03:29:45;5.95;;;4.00;;
57567;SDS011;43403;51.948;5.922;2024-02-26T03:32:12;6.18;;;3.88;;
57567;SDS011;43403;51.948;5.922;2024-02-26T03:34:38;5.60;;;4.00;;
57567;SDS011;43403;51.948;5.922;2024-02-26T03:37:06;5.15;;;3.72;;
57567;SDS011;43403;51.948;5.922;2024-02-26T03:39:35;5.45;;;4.18;;
57567;SDS011;43403;51.948;5.922;2024-02-26T03:42:01;6.45;;;4.35;;
57567;SDS011;43403;51.948;5.922;2024-02-26T03:44:28;6.07;;;3.50;;
57567;SDS011;43403;51.948;5.922;2024-02-26T03:46:54;5.40;;;3.58;;
57567;SDS011;43403;51.948;5.922;2024-02-26T03:49:21;5.20;;;3.75;;
57567;SDS011;43403;51.948;5.922;2024-02-26T03:51:48;6.40;;;3.97;;
57567;SDS011;43403;51.948;5.922;2024-02-26T03:54:15;5.97;;;3.55;;
57567;SDS011;43403;51.948;5.922;2024-02-26T03:56:41;4.40;;;3.50;;
57567;SDS011;43403;51.948;5.922;2024-02-26T03:59:07;4.82;;;3.47;;
57567;SDS011;43403;51.948;5.922;2024-02-26T04:01:34;9.00;;;3.90;;
57567;SDS011;43403;51.948;5.922;2024-02-26T04:04:00;6.18;;;3.70;;
57567;SDS011;43403;51.948;5.922;2024-02-26T04:06:27;6.00;;;3.58;;
57567;SDS011;43403;51.948;5.922;2024-02-26T04:08:53;4.65;;;3.15;;
57567;SDS011;43403;51.948;5.922;2024-02-26T04:11:19;3.80;;;2.92;;
57567;SDS011;43403;51.948;5.922;2024-02-26T04:13:46;4.88;;;3.33;;
57567;SDS011;43403;51.948;5.922;2024-02-26T04:16:15;4.38;;;3.00;;
57567;SDS011;43403;51.948;5.922;2024-02-26T04:18:42;4.55;;;3.33;;
57567;SDS011;43403;51.948;5.922;2024-02-26T04:21:09;6.28;;;3.25;;
57567;SDS011;43403;51.948;5.922;2024-02-26T04:23:35;5.13;;;3.70;;
57567;SDS011;43403;51.948;5.922;2024-02-26T04:26:02;5.65;;;3.63;;
57567;SDS011;43403;51.948;5.922;2024-02-26T04:28:28;4.63;;;3.50;;
57567;SDS011;43403;51.948;5.922;2024-02-26T04:30:55;6.70;;;4.15;;
57567;SDS011;43403;51.948;5.922;2024-02-26T04:33:22;4.50;;;3.25;;
57567;SDS011;43403;51.948;5.922;2024-02-26T04:35:48;5.22;;;3.80;;
57567;SDS011;43403;51.948;5.922;2024-02-26T04:38:15;5.20;;;3.90;;
57567;SDS011;43403;51.948;5.922;2024-02-26T04:40:41;4.88;;;3.47;;
57567;SDS011;43403;51.948;5.922;2024-02-26T04:43:07;5.43;;;3.42;;
57567;SDS011;43403;51.948;5.922;2024-02-26T04:45:34;6.93;;;3.35;;
57567;SDS011;43403;51.948;5.922;2024-02-26T04:48:00;4.97;;;3.60;;
57567;SDS011;43403;51.948;5.922;2024-02-26T04:50:27;5.35;;;3.25;;
57567;SDS011;43403;51.948;5.922;2024-02-26T04:52:53;6.30;;;3.78;;
57567;SDS011;43403;51.948;5.922;2024-02-26T04:55:20;5.93;;;3.70;;
57567;SDS011;43403;51.948;5.922;2024-02-26T04:57:46;5.80;;;4.10;;
57567;SDS011;43403;51.948;5.922;2024-02-26T05:00:13;5.55;;;3.45;;
57567;SDS011;43403;51.948;5.922;2024-02-26T05:02:39;5.00;;;3.72;;
57567;SDS011;43403;51.948;5.922;2024-02-26T05:05:06;5.90;;;4.43;;
57567;SDS011;43403;51.948;5.922;2024-02-26T05:07:32;4.38;;;3.45;;
57567;SDS011;43403;51.948;5.922;2024-02-26T05:09:59;6.68;;;4.35;;
57567;SDS011;43403;51.948;5.922;2024-02-26T05:12:25;5.13;;;3.72;;
57567;SDS011;43403;51.948;5.922;2024-02-26T05:14:52;6.20;;;3.75;;
57567;SDS011;43403;51.948;5.922;2024-02-26T05:17:18;6.60;;;3.45;;
57567;SDS011;43403;51.948;5.922;2024-02-26T05:19:44;8.32;;;3.85;;
57567;SDS011;43403;51.948;5.922;2024-02-26T05:22:11;5.95;;;3.63;;
57567;SDS011;43403;51.948;5.922;2024-02-26T05:24:37;9.13;;;3.65;;
57567;SDS011;43403;51.948;5.922;2024-02-26T05:27:04;5.50;;;3.90;;
57567;SDS011;43403;51.948;5.922;2024-02-26T05:29:31;4.93;;;3.40;;
57567;SDS011;43403;51.948;5.922;2024-02-26T05:31:57;5.32;;;3.65;;
57567;SDS011;43403;51.948;5.922;2024-02-26T05:34:23;5.38;;;3.25;;
57567;SDS011;43403;51.948;5.922;2024-02-26T05:36:50;6.68;;;3.63;;
57567;SDS011;43403;51.948;5.922;2024-02-26T05:39:16;6.00;;;3.45;;
57567;SDS011;43403;51.948;5.922;2024-02-26T05:41:46;5.28;;;3.28;;
57567;SDS011;43403;51.948;5.922;2024-02-26T05:44:13;4.15;;;3.05;;
57567;SDS011;43403;51.948;5.922;2024-02-26T05:46:39;6.07;;;3.88;;
57567;SDS011;43403;51.948;5.922;2024-02-26T05:49:06;6.30;;;4.13;;
57567;SDS011;43403;51.948;5.922;2024-02-26T05:51:33;5.68;;;4.03;;
57567;SDS011;43403;51.948;5.922;2024-02-26T05:54:00;5.53;;;3.55;;
57567;SDS011;43403;51.948;5.922;2024-02-26T05:56:26;5.63;;;3.45;;
57567;SDS011;43403;51.948;5.922;2024-02-26T05:58:53;7.10;;;4.18;;
57567;SDS011;43403;51.948;5.922;2024-02-26T06:01:20;5.22;;;3.70;;
57567;SDS011;43403;51.948;5.922;2024-02-26T06:03:47;4.85;;;3.22;;
57567;SDS011;43403;51.948;5.922;2024-02-26T06:06:13;5.40;;;3.65;;
57567;SDS011;43403;51.948;5.922;2024-02-26T06:08:41;6.22;;;4.00;;
57567;SDS011;43403;51.948;5.922;2024-02-26T06:11:08;6.30;;;3.92;;
57567;SDS011;43403;51.948;5.922;2024-02-26T06:13:35;5.35;;;3.78;;
57567;SDS011;43403;51.948;5.922;2024-02-26T06:16:01;11.23;;;4.22;;
57567;SDS011;43403;51.948;5.922;2024-02-26T06:18:28;4.72;;;3.70;;
57567;SDS011;43403;51.948;5.922;2024-02-26T06:20:55;5.43;;;3.80;;
57567;SDS011;43403;51.948;5.922;2024-02-26T06:23:21;6.30;;;3.90;;
57567;SDS011;43403;51.948;5.922;2024-02-26T06:25:48;6.95;;;4.53;;
57567;SDS011;43403;51.948;5.922;2024-02-26T06:28:14;5.25;;;3.85;;
57567;SDS011;43403;51.948;5.922;2024-02-26T06:30:41;6.13;;;4.07;;
57567;SDS011;43403;51.948;5.922;2024-02-26T06:33:07;6.25;;;4.30;;
57567;SDS011;43403;51.948;5.922;2024-02-26T06:35:34;6.63;;;4.40;;
57567;SDS011;43403;51.948;5.922;2024-02-26T06:38:00;5.80;;;3.97;;
57567;SDS011;43403;51.948;5.922;2024-02-26T06:40:27;5.10;;;3.38;;
57567;SDS011;43403;51.948;5.922;2024-02-26T06:42:53;7.38;;;4.00;;
57567;SDS011;43403;51.948;5.922;2024-02-26T06:45:19;7.28;;;3.67;;
57567;SDS011;43403;51.948;5.922;2024-02-26T06:47:46;8.40;;;4.30;;
57567;SDS011;43403;51.948;5.922;2024-02-26T06:50:13;6.63;;;4.03;;
57567;SDS011;43403;51.948;5.922;2024-02-26T06:52:40;5.90;;;4.00;;
57567;SDS011;43403;51.948;5.922;2024-02-26T06:55:06;5.22;;;3.90;;
57567;SDS011;43403;51.948;5.922;2024-02-26T06:57:34;7.68;;;4.22;;
57567;SDS011;43403;51.948;5.922;2024-02-26T07:00:01;7.32;;;4.65;;
57567;SDS011;43403;51.948;5.922;2024-02-26T07:02:30;6.55;;;5.00;;
57567;SDS011;43403;51.948;5.922;2024-02-26T07:04:57;6.57;;;4.82;;
57567;SDS011;43403;51.948;5.922;2024-02-26T07:07:24;6.47;;;4.68;;
57567;SDS011;43403;51.948;5.922;2024-02-26T07:09:51;7.20;;;4.78;;
57567;SDS011;43403;51.948;5.922;2024-02-26T07:12:17;6.10;;;4.50;;
57567;SDS011;43403;51.948;5.922;2024-02-26T07:14:45;7.28;;;4.88;;
57567;SDS011;43403;51.948;5.922;2024-02-26T07:17:12;9.50;;;5.20;;
57567;SDS011;43403;51.948;5.922;2024-02-26T07:19:38;7.80;;;5.57;;
57567;SDS011;43403;51.948;5.922;2024-02-26T07:22:05;8.95;;;5.28;;
57567;SDS011;43403;51.948;5.922;2024-02-26T07:24:32;7.15;;;4.75;;
57567;SDS011;43403;51.948;5.922;2024-02-26T07:26:58;7.18;;;4.80;;
57567;SDS011;43403;51.948;5.922;2024-02-26T07:29:24;7.43;;;5.50;;
57567;SDS011;43403;51.948;5.922;2024-02-26T07:31:51;7.07;;;5.05;;
57567;SDS011;43403;51.948;5.922;2024-02-26T07:34:17;8.07;;;4.90;;
57567;SDS011;43403;51.948;5.922;2024-02-26T07:36:44;8.93;;;5.63;;
57567;SDS011;43403;51.948;5.922;2024-02-26T07:39:10;7.53;;;5.35;;
57567;SDS011;43403;51.948;5.922;2024-02-26T07:41:37;8.05;;;5.45;;
57567;SDS011;43403;51.948;5.922;2024-02-26T07:44:05;6.70;;;4.97;;
57567;SDS011;43403;51.948;5.922;2024-02-26T07:46:31;7.10;;;5.10;;
57567;SDS011;43403;51.948;5.922;2024-02-26T07:48:58;7.85;;;5.60;;
57567;SDS011;43403;51.948;5.922;2024-02-26T07:51:24;11.45;;;6.28;;
57567;SDS011;43403;51.948;5.922;2024-02-26T07:53:51;9.10;;;6.25;;
57567;SDS011;43403;51.948;5.922;2024-02-26T07:56:19;9.43;;;5.72;;
57567;SDS011;43403;51.948;5.922;2024-02-26T07:58:45;10.88;;;5.90;;
57567;SDS011;43403;51.948;5.922;2024-02-26T08:01:14;9.35;;;6.63;;
57567;SDS011;43403;51.948;5.922;2024-02-26T08:03:41;9.88;;;6.88;;
57567;SDS011;43403;51.948;5.922;2024-02-26T08:06:08;11.48;;;7.25;;
57567;SDS011;43403;51.948;5.922;2024-02-26T08:08:34;9.15;;;6.82;;
57567;SDS011;43403;51.948;5.922;2024-02-26T08:11:01;9.70;;;6.75;;
57567;SDS011;43403;51.948;5.922;2024-02-26T08:13:27;10.38;;;7.30;;
57567;SDS011;43403;51.948;5.922;2024-02-26T08:15:53;11.77;;;7.78;;
57567;SDS011;43403;51.948;5.922;2024-02-26T08:18:20;11.75;;;7.80;;
57567;SDS011;43403;51.948;5.922;2024-02-26T08:20:46;10.95;;;7.65;;
57567;SDS011;43403;51.948;5.922;2024-02-26T08:23:15;10.25;;;6.60;;
57567;SDS011;43403;51.948;5.922;2024-02-26T08:25:41;13.02;;;8.32;;
57567;SDS011;43403;51.948;5.922;2024-02-26T08:28:08;12.48;;;7.28;;
57567;SDS011;43403;51.948;5.922;2024-02-26T08:30:34;12.02;;;7.72;;
57567;SDS011;43403;51.948;5.922;2024-02-26T08:33:01;12.55;;;7.80;;
57567;SDS011;43403;51.948;5.922;2024-02-26T08:35:27;12.05;;;7.80;;
57567;SDS011;43403;51.948;5.922;2024-02-26T08:37:53;12.30;;;8.50;;
57567;SDS011;43403;51.948;5.922;2024-02-26T08:40:20;12.43;;;7.95;;
57567;SDS011;43403;51.948;5.922;2024-02-26T08:42:46;12.70;;;7.78;;
57567;SDS011;43403;51.948;5.922;2024-02-26T08:45:13;11.88;;;8.70;;
57567;SDS011;43403;51.948;5.922;2024-02-26T08:47:39;13.38;;;8.32;;
57567;SDS011;43403;51.948;5.922;2024-02-26T08:50:06;14.00;;;8.00;;
57567;SDS011;43403;51.948;5.922;2024-02-26T08:52:32;12.52;;;7.63;;
57567;SDS011;43403;51.948;5.922;2024-02-26T08:54:59;12.90;;;8.15;;
57567;SDS011;43403;51.948;5.922;2024-02-26T08:57:26;12.68;;;8.00;;
57567;SDS011;43403;51.948;5.922;2024-02-26T08:59:54;16.00;;;8.40;;
57567;SDS011;43403;51.948;5.922;2024-02-26T09:02:20;11.57;;;7.72;;
57567;SDS011;43403;51.948;5.922;2024-02-26T09:04:46;13.25;;;7.85;;
57567;SDS011;43403;51.948;5.922;2024-02-26T09:07:13;15.38;;;8.82;;
57567;SDS011;43403;51.948;5.922;2024-02-26T09:09:40;11.80;;;7.55;;
57567;SDS011;43403;51.948;5.922;2024-02-26T09:12:06;12.50;;;7.45;;
57567;SDS011;43403;51.948;5.922;2024-02-26T09:14:33;12.25;;;7.45;;
57567;SDS011;43403;51.948;5.922;2024-02-26T09:16:59;14.60;;;8.27;;
57567;SDS011;43403;51.948;5.922;2024-02-26T09:19:26;13.10;;;7.80;;
57567;SDS011;43403;51.948;5.922;2024-02-26T09:21:55;13.95;;;8.70;;
57567;SDS011;43403;51.948;5.922;2024-02-26T09:24:24;13.30;;;8.48;;
57567;SDS011;43403;51.948;5.922;2024-02-26T09:26:50;16.90;;;9.70;;
57567;SDS011;43403;51.948;5.922;2024-02-26T09:29:17;15.27;;;9.05;;
57567;SDS011;43403;51.948;5.922;2024-02-26T09:31:43;16.17;;;9.55;;
57567;SDS011;43403;51.948;5.922;2024-02-26T09:34:13;16.02;;;9.13;;
57567;SDS011;43403;51.948;5.922;2024-02-26T09:36:40;14.05;;;8.63;;
57567;SDS011;43403;51.948;5.922;2024-02-26T09:39:06;15.88;;;8.63;;
57567;SDS011;43403;51.948;5.922;2024-02-26T09:41:38;16.90;;;9.27;;
57567;SDS011;43403;51.948;5.922;2024-02-26T09:44:05;15.35;;;8.93;;
57567;SDS011;43403;51.948;5.922;2024-02-26T09:46:31;14.90;;;8.52;;
57567;SDS011;43403;51.948;5.922;2024-02-26T09:48:58;18.30;;;9.95;;
57567;SDS011;43403;51.948;5.922;2024-02-26T09:51:25;15.05;;;8.88;;
57567;SDS011;43403;51.948;5.922;2024-02-26T09:53:52;16.23;;;10.07;;
57567;SDS011;43403;51.948;5.922;2024-02-26T09:56:19;15.00;;;9.07;;
57567;SDS011;43403;51.948;5.922;2024-02-26T09:58:45;18.20;;;9.35;;
57567;SDS011;43403;51.948;5.922;2024-02-26T10:01:18;15.05;;;9.10;;
57567;SDS011;43403;51.948;5.922;2024-02-26T10:03:44;14.63;;;8.35;;
57567;SDS011;43403;51.948;5.922;2024-02-26T10:06:12;14.07;;;8.87;;
57567;SDS011;43403;51.948;5.922;2024-02-26T10:08:39;14.43;;;8.15;;
57567;SDS011;43403;51.948;5.922;2024-02-26T10:11:07;14.45;;;8.55;;
57567;SDS011;43403;51.948;5.922;2024-02-26T10:13:34;15.30;;;8.57;;
57567;SDS011;43403;51.948;5.922;2024-02-26T10:16:01;14.75;;;8.60;;
57567;SDS011;43403;51.948;5.922;2024-02-26T10:21:18;14.88;;;8.63;;
57567;SDS011;43403;51.948;5.922;2024-02-26T10:23:45;15.20;;;8.05;;
57567;SDS011;43403;51.948;5.922;2024-02-26T10:26:12;15.68;;;9.18;;
57567;SDS011;43403;51.948;5.922;2024-02-26T10:28:40;15.85;;;9.13;;
57567;SDS011;43403;51.948;5.922;2024-02-26T10:31:06;14.98;;;8.90;;
57567;SDS011;43403;51.948;5.922;2024-02-26T10:33:33;13.88;;;8.15;;
57567;SDS011;43403;51.948;5.922;2024-02-26T10:36:05;12.63;;;8.15;;
57567;SDS011;43403;51.948;5.922;2024-02-26T10:38:32;14.63;;;8.35;;
57567;SDS011;43403;51.948;5.922;2024-02-26T10:40:58;13.60;;;8.13;;
57567;SDS011;43403;51.948;5.922;2024-02-26T10:43:25;13.80;;;8.57;;
57567;SDS011;43403;51.948;5.922;2024-02-26T10:45:51;13.55;;;8.55;;
57567;SDS011;43403;51.948;5.922;2024-02-26T10:48:18;14.23;;;8.13;;
57567;SDS011;43403;51.948;5.922;2024-02-26T10:50:44;13.82;;;8.60;;
57567;SDS011;43403;51.948;5.922;2024-02-26T10:53:21;14.95;;;8.30;;
57567;SDS011;43403;51.948;5.922;2024-02-26T10:55:48;14.55;;;7.72;;
57567;SDS011;43403;51.948;5.922;2024-02-26T10:58:15;12.30;;;7.85;;
57567;SDS011;43403;51.948;5.922;2024-02-26T11:00:42;12.73;;;8.30;;
57567;SDS011;43403;51.948;5.922;2024-02-26T11:03:09;13.68;;;8.25;;
57567;SDS011;43403;51.948;5.922;2024-02-26T11:05:37;13.25;;;8.48;;
57567;SDS011;43403;51.948;5.922;2024-02-26T11:08:05;13.75;;;8.40;;
57567;SDS011;43403;51.948;5.922;2024-02-26T11:10:31;14.57;;;8.43;;
57567;SDS011;43403;51.948;5.922;2024-02-26T11:12:59;13.43;;;8.40;;
57567;SDS011;43403;51.948;5.922;2024-02-26T11:15:26;14.02;;;8.90;;
57567;SDS011;43403;51.948;5.922;2024-02-26T11:17:52;13.00;;;8.65;;
57567;SDS011;43403;51.948;5.922;2024-02-26T11:20:19;14.57;;;8.57;;
57567;SDS011;43403;51.948;5.922;2024-02-26T11:22:46;15.00;;;9.00;;
57567;SDS011;43403;51.948;5.922;2024-02-26T11:25:12;14.43;;;8.75;;
57567;SDS011;43403;51.948;5.922;2024-02-26T11:27:46;15.88;;;9.55;;
57567;SDS011;43403;51.948;5.922;2024-02-26T11:30:14;18.52;;;10.13;;
57567;SDS011;43403;51.948;5.922;2024-02-26T11:32:45;16.35;;;9.23;;
57567;SDS011;43403;51.948;5.922;2024-02-26T11:35:13;14.40;;;8.63;;
57567;SDS011;43403;51.948;5.922;2024-02-26T11:37:41;15.65;;;9.82;;
57567;SDS011;43403;51.948;5.922;2024-02-26T11:40:17;15.38;;;8.68;;
57567;SDS011;43403;51.948;5.922;2024-02-26T11:42:44;17.33;;;8.82;;
57567;SDS011;43403;51.948;5.922;2024-02-26T11:45:57;14.80;;;8.45;;
57567;SDS011;43403;51.948;5.922;2024-02-26T11:47:58;13.93;;;8.85;;
57567;SDS011;43403;51.948;5.922;2024-02-26T11:50:36;14.07;;;9.13;;
57567;SDS011;43403;51.948;5.922;2024-02-26T11:53:20;16.73;;;9.30;;
57567;SDS011;43403;51.948;5.922;2024-02-26T11:55:47;14.73;;;8.48;;
57567;SDS011;43403;51.948;5.922;2024-02-26T11:58:14;12.45;;;8.20;;
57567;SDS011;43403;51.948;5.922;2024-02-26T12:00:42;12.07;;;7.30;;
57567;SDS011;43403;51.948;5.922;2024-02-26T12:03:09;12.18;;;7.95;;
57567;SDS011;43403;51.948;5.922;2024-02-26T12:05:37;10.95;;;7.47;;
57567;SDS011;43403;51.948;5.922;2024-02-26T12:08:06;11.75;;;7.57;;
57567;SDS011;43403;51.948;5.922;2024-02-26T12:10:38;13.30;;;8.13;;
57567;SDS011;43403;51.948;5.922;2024-02-26T12:13:10;12.05;;;7.38;;
57567;SDS011;43403;51.948;5.922;2024-02-26T12:15:44;13.38;;;7.65;;
57567;SDS011;43403;51.948;5.922;2024-02-26T12:18:17;11.75;;;6.80;;
57567;SDS011;43403;51.948;5.922;2024-02-26T12:20:44;11.60;;;6.93;;
57567;SDS011;43403;51.948;5.922;2024-02-26T12:23:14;11.88;;;7.10;;
57567;SDS011;43403;51.948;5.922;2024-02-26T12:25:41;10.57;;;6.53;;
57567;SDS011;43403;51.948;5.922;2024-02-26T12:28:07;11.43;;;6.97;;
57567;SDS011;43403;51.948;5.922;2024-02-26T12:30:34;11.30;;;6.57;;
57567;SDS011;43403;51.948;5.922;2024-02-26T12:33:01;11.57;;;6.40;;
57567;SDS011;43403;51.948;5.922;2024-02-26T12:35:28;10.35;;;5.50;;
57567;SDS011;43403;51.948;5.922;2024-02-26T12:37:54;10.27;;;5.82;;
57567;SDS011;43403;51.948;5.922;2024-02-26T12:40:21;9.98;;;6.15;;
57567;SDS011;43403;51.948;5.922;2024-02-26T12:42:48;10.68;;;5.93;;
57567;SDS011;43403;51.948;5.922;2024-02-26T12:45:15;10.65;;;6.63;;
57567;SDS011;43403;51.948;5.922;2024-02-26T12:47:42;9.98;;;5.90;;
57567;SDS011;43403;51.948;5.922;2024-02-26T12:50:09;8.43;;;5.45;;
57567;SDS011;43403;51.948;5.922;2024-02-26T12:52:40;10.57;;;5.57;;
57567;SDS011;43403;51.948;5.922;2024-02-26T12:55:07;9.07;;;5.70;;
57567;SDS011;43403;51.948;5.922;2024-02-26T12:57:37;8.65;;;5.10;;
57567;SDS011;43403;51.948;5.922;2024-02-26T13:00:07;10.70;;;6.15;;
57567;SDS011;43403;51.948;5.922;2024-02-26T13:02:36;10.63;;;5.68;;
57567;SDS011;43403;51.948;5.922;2024-02-26T13:05:03;9.80;;;5.23;;
57567;SDS011;43403;51.948;5.922;2024-02-26T13:07:30;8.65;;;5.28;;
57567;SDS011;43403;51.948;5.922;2024-02-26T13:09:57;11.93;;;6.20;;
57567;SDS011;43403;51.948;5.922;2024-02-26T13:12:23;10.90;;;5.63;;
57567;SDS011;43403;51.948;5.922;2024-02-26T13:15:02;9.25;;;5.97;;
57567;SDS011;43403;51.948;5.922;2024-02-26T13:17:32;14.52;;;6.63;;
57567;SDS011;43403;51.948;5.922;2024-02-26T13:19:58;11.18;;;6.25;;
57567;SDS011;43403;51.948;5.922;2024-02-26T13:22:24;10.00;;;6.32;;
57567;SDS011;43403;51.948;5.922;2024-02-26T13:24:54;12.68;;;6.80;;
57567;SDS011;43403;51.948;5.922;2024-02-26T13:27:22;11.80;;;7.05;;
57567;SDS011;43403;51.948;5.922;2024-02-26T13:29:48;12.00;;;6.57;;
57567;SDS011;43403;51.948;5.922;2024-02-26T13:32:15;12.13;;;6.68;;
57567;SDS011;43403;51.948;5.922;2024-02-26T13:34:41;12.18;;;6.68;;
57567;SDS011;43403;51.948;5.922;2024-02-26T13:37:08;10.52;;;6.60;;
57567;SDS011;43403;51.948;5.922;2024-02-26T13:39:35;10.57;;;6.50;;
57567;SDS011;43403;51.948;5.922;2024-02-26T13:42:07;13.48;;;6.97;;
57567;SDS011;43403;51.948;5.922;2024-02-26T13:44:34;9.98;;;5.68;;
57567;SDS011;43403;51.948;5.922;2024-02-26T13:47:05;11.10;;;6.97;;
57567;SDS011;43403;51.948;5.922;2024-02-26T13:49:31;10.55;;;6.68;;
57567;SDS011;43403;51.948;5.922;2024-02-26T13:51:58;9.85;;;5.72;;
57567;SDS011;43403;51.948;5.922;2024-02-26T13:54:24;10.95;;;6.55;;
57567;SDS011;43403;51.948;5.922;2024-02-26T13:56:51;11.43;;;6.22;;
57567;SDS011;43403;51.948;5.922;2024-02-26T13:59:18;9.45;;;6.22;;
57567;SDS011;43403;51.948;5.922;2024-02-26T14:01:45;10.60;;;6.43;;
57567;SDS011;43403;51.948;5.922;2024-02-26T14:04:11;10.57;;;5.82;;
57567;SDS011;43403;51.948;5.922;2024-02-26T14:06:38;9.25;;;5.88;;
57567;SDS011;43403;51.948;5.922;2024-02-26T14:09:05;8.27;;;5.82;;
57567;SDS011;43403;51.948;5.922;2024-02-26T14:11:31;10.32;;;6.40;;
57567;SDS011;43403;51.948;5.922;2024-02-26T14:13:58;11.55;;;6.45;;
57567;SDS011;43403;51.948;5.922;2024-02-26T14:16:24;10.77;;;6.70;;
57567;SDS011;43403;51.948;5.922;2024-02-26T14:18:52;9.60;;;6.17;;
57567;SDS011;43403;51.948;5.922;2024-02-26T14:21:19;11.13;;;6.75;;
57567;SDS011;43403;51.948;5.922;2024-02-26T14:23:45;10.20;;;6.07;;
57567;SDS011;43403;51.948;5.922;2024-02-26T14:26:12;11.65;;;6.43;;
57567;SDS011;43403;51.948;5.922;2024-02-26T14:28:38;11.18;;;6.53;;
57567;SDS011;43403;51.948;5.922;2024-02-26T14:31:05;12.13;;;7.22;;
57567;SDS011;43403;51.948;5.922;2024-02-26T14:33:32;12.05;;;6.57;;
57567;SDS011;43403;51.948;5.922;2024-02-26T14:35:58;9.45;;;6.00;;
57567;SDS011;43403;51.948;5.922;2024-02-26T14:38:25;9.88;;;6.20;;
57567;SDS011;43403;51.948;5.922;2024-02-26T14:40:51;10.10;;;6.25;;
57567;SDS011;43403;51.948;5.922;2024-02-26T14:43:18;9.88;;;6.28;;
57567;SDS011;43403;51.948;5.922;2024-02-26T14:45:44;9.80;;;6.28;;